Time;durP1;ratioP1;P1;durP2;ratioP2;P2;SDS_P1;SDS_P2;PMS_P1;PMS_P2;Temp;Humidity;BMP_temperature;BMP_pressure;BME280_temperature;BME280_humidity;BME280_pressure;Samples;Min_cycle;Max_cycle;Signal;HPM_P1;HPM_P2
2021/11/27 00:00:05;;;;;;;;;;;;;;;2.89;77.10;99015.53;6154041;23;19927;-69
2021/11/27 00:02:39;;;;;;;;;;;;;;;2.83;76.93;99010.66;6154933;23;19921;-69
2021/11/27 00:05:05;;;;;;;;;;;;;;;2.94;76.96;99012.69;6155983;23;20260;-69
2021/11/27 00:07:31;;;;;;;;;;;;;;;3.01;76.65;99014.00;6155209;23;20066;-68
2021/11/27 00:09:56;;;;;;;;;;;;;;;3.03;76.37;99006.91;6155964;23;20662;-69
2021/11/27 00:12:22;;;;;;;;;;;;;;;3.10;76.35;99003.97;6155807;23;20340;-72
2021/11/27 00:14:48;;;;;;;;;;;;;;;3.15;75.87;98999.31;6155884;23;19924;-70
2021/11/27 00:17:13;;;;;;;;;;;;;;;3.14;75.67;99002.84;6156081;23;19920;-67
2021/11/27 00:19:39;;;;;;;;;;;;;;;3.20;75.61;98997.25;6129940;23;19944;-69
2021/11/27 00:22:05;;;;;;;;;;;;;;;3.16;75.51;99001.00;6129795;23;19927;-68
2021/11/27 00:24:30;;;;;;;;;;;;;;;3.11;75.45;98989.97;6129822;23;20318;-68
2021/11/27 00:26:56;;;;;;;;;;;;;;;3.11;75.47;98987.34;6156943;23;19920;-69
2021/11/27 00:29:23;;;;;;;;;;;;;;;3.23;75.23;98984.88;6129563;23;20033;-69
2021/11/27 00:31:49;;;;;;;;;;;;;;;3.21;75.05;98980.66;6130340;23;19920;-68
2021/11/27 00:34:15;;;;;;;;;;;;;;;3.16;75.36;98972.25;6129799;23;19924;-67
2021/11/27 00:36:43;;;;;;;;;;;;;;;3.10;75.53;98970.00;6153993;23;19948;-69
2021/11/27 00:39:09;;;;;;;;;;;;;;;3.04;75.41;98961.59;6105230;23;20011;-69
2021/11/27 00:41:35;;;;;;;;;;;;;;;3.10;75.61;98970.00;6155546;23;19948;-68
2021/11/27 00:44:01;;;;;;;;;;;;;;;3.08;75.26;98968.31;6156337;23;19921;-69
2021/11/27 00:46:27;;;;;;;;;;;;;;;3.01;75.61;98972.19;6129966;23;19927;-69
2021/11/27 00:48:53;;;;;;;;;;;;;;;2.97;75.51;98965.47;6156343;23;19920;-68
2021/11/27 00:51:20;;;;;;;;;;;;;;;2.99;75.53;98963.63;6155820;23;19944;-69
2021/11/27 00:53:45;;;;;;;;;;;;;;;3.05;75.41;98968.50;6153963;23;20367;-69
2021/11/27 00:56:14;;;;;;;;;;;;;;;2.97;75.54;98980.31;6155598;23;19924;-69
2021/11/27 00:58:43;;;;;;;;;;;;;;;2.93;75.75;98971.81;6130064;23;19920;-70
2021/11/27 01:01:10;;;;;;;;;;;;;;;2.90;75.55;98971.97;6155589;23;19928;-68
2021/11/27 01:03:37;;;;;;;;;;;;;;;2.90;75.93;98959.78;6155735;23;20006;-69
2021/11/27 01:06:05;;;;;;;;;;;;;;;2.90;75.92;98957.16;6105330;23;19975;-68
2021/11/27 01:08:31;;;;;;;;;;;;;;;2.90;75.63;98948.47;6155300;23;19920;-67
2021/11/27 01:11:05;;;;;;;;;;;;;;;2.86;75.86;98941.75;6129522;23;19920;-69
2021/11/27 01:13:31;;;;;;;;;;;;;;;2.90;75.78;98938.00;6154558;23;20210;-70
2021/11/27 01:15:57;;;;;;;;;;;;;;;2.89;75.73;98947.63;6129385;23;19921;-70
2021/11/27 01:18:23;;;;;;;;;;;;;;;2.90;75.35;98953.69;6129504;23;20479;-67
2021/11/27 01:20:51;;;;;;;;;;;;;;;2.80;75.55;98962.97;6155103;23;19927;-69
2021/11/27 01:23:17;;;;;;;;;;;;;;;2.73;75.77;98973.78;6129200;23;19971;-70
2021/11/27 01:25:44;;;;;;;;;;;;;;;2.81;75.90;98975.13;6154960;23;19920;-69
2021/11/27 01:28:11;;;;;;;;;;;;;;;2.81;75.95;98972.50;6129208;23;19968;-71
2021/11/27 01:30:39;;;;;;;;;;;;;;;2.75;75.81;98971.94;6129192;23;19927;-70
2021/11/27 01:33:05;;;;;;;;;;;;;;;2.78;75.77;98975.28;6155939;23;19922;-68
2021/11/27 01:35:31;;;;;;;;;;;;;;;2.86;75.71;98986.13;6128954;23;19968;-68
2021/11/27 01:38:00;;;;;;;;;;;;;;;2.84;75.22;98977.53;6155150;23;20230;-69
2021/11/27 01:40:26;;;;;;;;;;;;;;;2.84;75.41;98982.75;6128732;23;19921;-69
2021/11/27 01:42:53;;;;;;;;;;;;;;;2.83;75.18;98974.09;6104786;23;19940;-71
2021/11/27 01:45:19;;;;;;;;;;;;;;;2.86;75.15;98984.34;6154374;23;19924;-70
2021/11/27 01:47:53;;;;;;;;;;;;;;;2.90;75.34;98966.75;6131516;23;20966;-69
2021/11/27 01:50:20;;;;;;;;;;;;;;;2.89;74.88;98967.66;6154968;23;19927;-69
2021/11/27 01:52:46;;;;;;;;;;;;;;;2.85;75.20;98968.78;6128902;23;19920;-69
2021/11/27 01:55:14;;;;;;;;;;;;;;;2.81;75.28;98970.72;6154401;23;20237;-68
2021/11/27 01:57:41;;;;;;;;;;;;;;;2.75;75.20;98964.09;6128935;23;20260;-69
2021/11/27 02:00:08;;;;;;;;;;;;;;;2.68;75.87;98957.53;6128546;23;20388;-70
2021/11/27 02:02:42;;;;;;;;;;;;;;;2.75;75.53;98964.09;6155335;23;19960;-70
2021/11/27 02:05:08;;;;;;;;;;;;;;;2.67;75.54;98968.88;6128174;23;19967;-68
2021/11/27 02:07:34;;;;;;;;;;;;;;;2.70;75.47;98968.69;6127449;23;20272;-69
2021/11/27 02:10:00;;;;;;;;;;;;;;;2.79;75.56;98967.38;6129232;23;19999;-68
2021/11/27 02:12:27;;;;;;;;;;;;;;;2.84;75.05;98970.56;6129365;23;19971;-68
2021/11/27 02:14:53;;;;;;;;;;;;;;;2.92;74.88;98973.56;6128658;23;19924;-70
2021/11/27 02:17:23;;;;;;;;;;;;;;;2.98;74.75;98975.00;6129245;23;19927;-69
2021/11/27 02:19:53;;;;;;;;;;;;;;;2.98;74.64;98982.84;6129122;23;20337;-70
2021/11/27 02:22:18;;;;;;;;;;;;;;;2.97;74.44;98981.16;6128448;23;19928;-69
2021/11/27 02:24:47;;;;;;;;;;;;;;;2.95;74.61;98972.53;6128539;23;19927;-67
2021/11/27 02:27:14;;;;;;;;;;;;;;;2.94;74.51;98976.09;6129017;23;19921;-69
2021/11/27 02:29:39;;;;;;;;;;;;;;;2.91;74.71;98971.03;6129080;23;19927;-67
2021/11/27 02:32:05;;;;;;;;;;;;;;;2.80;74.37;98974.25;6155009;23;19999;-69
2021/11/27 02:34:31;;;;;;;;;;;;;;;2.72;74.85;98971.25;6104165;23;20521;-69
2021/11/27 02:36:59;;;;;;;;;;;;;;;2.74;75.11;98975.47;6155749;23;20225;-68
2021/11/27 02:39:25;;;;;;;;;;;;;;;2.63;75.29;98976.97;6129557;23;19924;-68
2021/11/27 02:41:53;;;;;;;;;;;;;;;2.52;75.69;98967.97;6129534;23;19942;-68
2021/11/27 02:44:21;;;;;;;;;;;;;;;2.58;75.61;98964.19;6129442;23;19920;-67
2021/11/27 02:46:46;;;;;;;;;;;;;;;2.59;75.22;98958.03;6129917;23;19921;-69
2021/11/27 02:49:12;;;;;;;;;;;;;;;2.59;75.17;98960.63;6129211;23;19963;-68
2021/11/27 02:51:38;;;;;;;;;;;;;;;2.59;75.60;98971.94;6154255;23;20003;-68
2021/11/27 02:54:03;;;;;;;;;;;;;;;2.62;75.42;98964.84;6128575;23;19921;-70
2021/11/27 02:56:29;;;;;;;;;;;;;;;2.67;75.04;98981.94;6147265;23;19943;-69
2021/11/27 02:58:55;;;;;;;;;;;;;;;2.75;74.98;98971.06;6124800;23;20011;-70
2021/11/27 03:01:21;;;;;;;;;;;;;;;2.74;75.04;98979.81;6123543;23;19986;-68
2021/11/27 03:03:47;;;;;;;;;;;;;;;2.80;74.58;98968.19;6123407;23;19921;-68
2021/11/27 03:06:13;;;;;;;;;;;;;;;2.88;74.41;98959.00;6124742;23;19921;-67
2021/11/27 03:08:38;;;;;;;;;;;;;;;2.82;74.04;98959.34;6124689;23;19928;-68
2021/11/27 03:11:04;;;;;;;;;;;;;;;2.81;74.45;98960.28;6123386;23;19925;-67
2021/11/27 03:13:31;;;;;;;;;;;;;;;2.68;74.90;98965.34;6123673;23;20407;-70
2021/11/27 03:15:57;;;;;;;;;;;;;;;2.74;74.56;98965.00;6123076;23;20402;-69
2021/11/27 03:18:23;;;;;;;;;;;;;;;2.81;74.47;98964.66;6123570;23;19928;-66
2021/11/27 03:20:52;;;;;;;;;;;;;;;2.87;74.04;98965.16;6122680;23;19920;-67
2021/11/27 03:23:18;;;;;;;;;;;;;;;2.80;74.01;98968.19;6123370;23;19921;-68
2021/11/27 03:25:44;;;;;;;;;;;;;;;2.70;74.62;98947.81;6123253;23;19940;-68
2021/11/27 03:28:10;;;;;;;;;;;;;;;2.62;74.64;98950.03;6124876;23;19920;-67
2021/11/27 03:30:36;;;;;;;;;;;;;;;2.54;75.22;98947.00;6122858;23;20352;-68
2021/11/27 03:33:05;;;;;;;;;;;;;;;2.55;75.22;98959.97;6123319;23;19948;-69
2021/11/27 03:35:31;;;;;;;;;;;;;;;2.62;75.11;98960.47;6123064;23;20314;-68
2021/11/27 03:37:59;;;;;;;;;;;;;;;2.49;74.95;98964.69;6122957;23;19921;-68
2021/11/27 03:40:27;;;;;;;;;;;;;;;2.46;75.39;98959.66;6124711;23;19920;-69
2021/11/27 03:42:54;;;;;;;;;;;;;;;2.51;75.03;98960.25;6123305;23;19929;-71
2021/11/27 03:45:21;;;;;;;;;;;;;;;2.47;75.20;98966.53;6123220;23;20368;-70
2021/11/27 03:47:53;;;;;;;;;;;;;;;2.45;75.31;98971.03;6123300;23;19967;-69
2021/11/27 03:50:19;;;;;;;;;;;;;;;2.37;75.36;98967.06;6123464;23;19921;-67
2021/11/27 03:52:44;;;;;;;;;;;;;;;2.42;75.59;98975.47;6123210;23;20337;-69
2021/11/27 03:55:12;;;;;;;;;;;;;;;2.41;75.55;98965.94;6123337;23;19940;-71
2021/11/27 03:57:39;;;;;;;;;;;;;;;2.43;75.38;98965.88;6123359;23;20371;-67
2021/11/27 04:00:05;;;;;;;;;;;;;;;2.46;75.11;98957.03;6123371;23;19925;-67
2021/11/27 04:02:41;;;;;;;;;;;;;;;2.53;75.11;98960.97;6124500;23;20020;-70
2021/11/27 04:05:07;;;;;;;;;;;;;;;2.56;74.88;98956.44;6098768;23;19921;-70
2021/11/27 04:07:33;;;;;;;;;;;;;;;2.52;74.79;98952.31;6098432;23;19959;-71
2021/11/27 04:09:59;;;;;;;;;;;;;;;2.53;74.76;98950.53;6121835;23;19921;-68
2021/11/27 04:12:25;;;;;;;;;;;;;;;2.53;74.80;98960.97;6098915;23;19975;-69
2021/11/27 04:14:50;;;;;;;;;;;;;;;2.54;74.91;98963.53;6123039;23;20063;-70
2021/11/27 04:17:17;;;;;;;;;;;;;;;2.54;74.93;98963.53;6123771;23;19920;-71
2021/11/27 04:19:45;;;;;;;;;;;;;;;2.46;74.90;98970.09;6098645;23;20359;-68
2021/11/27 04:22:10;;;;;;;;;;;;;;;2.57;74.80;98958.13;6124060;23;20007;-69
2021/11/27 04:24:43;;;;;;;;;;;;;;;2.55;74.63;98959.13;6124308;23;19968;-69
2021/11/27 04:27:09;;;;;;;;;;;;;;;2.45;74.79;98958.78;6125121;23;19964;-68
2021/11/27 04:29:35;;;;;;;;;;;;;;;2.41;74.96;98962.50;6123724;23;19932;-71
2021/11/27 04:32:01;;;;;;;;;;;;;;;2.39;75.09;98954.78;6123679;23;19920;-73
2021/11/27 04:34:27;;;;;;;;;;;;;;;2.46;74.60;98946.59;6099702;23;20410;-69
2021/11/27 04:36:53;;;;;;;;;;;;;;;2.35;74.87;98957.63;6123521;23;20075;-71
2021/11/27 04:39:19;;;;;;;;;;;;;;;2.37;74.97;98953.19;6123499;23;20472;-73
2021/11/27 04:41:45;;;;;;;;;;;;;;;2.28;75.41;98972.78;6123865;23;20222;-69
2021/11/27 04:44:11;;;;;;;;;;;;;;;2.34;74.94;98956.75;6099452;23;19925;-71
2021/11/27 04:46:37;;;;;;;;;;;;;;;2.32;75.04;98958.63;6123550;23;19920;-69
2021/11/27 04:49:03;;;;;;;;;;;;;;;2.34;75.24;98967.19;6124270;23;19928;-71
2021/11/27 04:51:28;;;;;;;;;;;;;;;2.37;75.22;98967.06;6100741;23;19921;-70
2021/11/27 04:53:54;;;;;;;;;;;;;;;2.38;74.70;98966.13;6124744;23;20011;-70
2021/11/27 04:56:20;;;;;;;;;;;;;;;2.37;74.80;98976.66;6124736;23;20249;-71
2021/11/27 04:58:46;;;;;;;;;;;;;;;2.37;74.95;98963.63;6126120;23;19921;-72
2021/11/27 05:01:11;;;;;;;;;;;;;;;2.29;75.41;98958.78;6124961;23;19927;-71
2021/11/27 05:03:56;;;;;;;;;;;;;;;2.29;74.91;98947.53;6104226;23;19928;-71
2021/11/27 05:06:22;;;;;;;;;;;;;;;2.34;74.78;98956.75;6126244;23;19921;-69
2021/11/27 05:08:48;;;;;;;;;;;;;;;2.32;74.98;98947.34;6124889;23;19920;-71
2021/11/27 05:11:16;;;;;;;;;;;;;;;2.38;74.54;98958.31;6125208;23;19972;-70
2021/11/27 05:13:43;;;;;;;;;;;;;;;2.29;74.66;98958.78;6125093;23;19921;-69
2021/11/27 05:16:08;;;;;;;;;;;;;;;2.22;74.98;98973.94;6125008;23;19921;-69
2021/11/27 05:18:34;;;;;;;;;;;;;;;2.18;75.06;98968.97;6100323;23;20015;-68
2021/11/27 05:21:06;;;;;;;;;;;;;;;2.29;74.59;98961.41;6126366;23;19920;-70
2021/11/27 05:23:34;;;;;;;;;;;;;;;2.28;74.71;98961.50;6125193;23;19921;-68
2021/11/27 05:26:15;;;;;;;;;;;;;;;2.19;74.58;98960.22;6125454;23;19928;-69
2021/11/27 05:29:10;;;;;;;;;;;;;;;2.20;74.43;98961.91;6119595;23;20002;-75
2021/11/27 05:32:00;;;;;;;;;;;;;;;2.26;74.51;98961.59;6126673;23;20273;-72
2021/11/27 05:34:35;;;;;;;;;;;;;;;2.29;74.13;98964.00;6150204;23;19921;-72
2021/11/27 05:37:02;;;;;;;;;;;;;;;2.26;74.24;98965.03;6125094;23;19920;-69
2021/11/27 05:39:27;;;;;;;;;;;;;;;2.28;74.16;98970.19;6124873;23;19924;-73
2021/11/27 05:41:53;;;;;;;;;;;;;;;2.30;73.86;98960.47;6126496;23;19944;-73
2021/11/27 05:44:19;;;;;;;;;;;;;;;2.26;73.68;98964.19;6125778;23;19920;-71
2021/11/27 05:46:45;;;;;;;;;;;;;;;2.20;73.81;98960.13;6125431;23;19932;-72
2021/11/27 05:49:10;;;;;;;;;;;;;;;2.18;73.86;98961.16;6100443;23;19925;-70
2021/11/27 05:52:09;;;;;;;;;;;;;;;2.13;73.76;98952.72;6124838;23;19920;-73
2021/11/27 05:54:35;;;;;;;;;;;;;;;2.21;73.95;98961.00;6126459;23;19921;-72
2021/11/27 05:57:01;;;;;;;;;;;;;;;2.27;73.70;98955.44;6129235;23;20259;-71
2021/11/27 05:59:27;;;;;;;;;;;;;;;2.25;73.25;98952.91;6129478;23;19921;-70
2021/11/27 06:01:53;;;;;;;;;;;;;;;2.34;73.02;98956.75;6155245;23;19999;-70
2021/11/27 06:04:18;;;;;;;;;;;;;;;2.29;72.59;98956.19;6130224;23;19940;-72
2021/11/27 06:06:44;;;;;;;;;;;;;;;2.23;72.51;98962.59;6129024;23;19924;-71
2021/11/27 06:09:10;;;;;;;;;;;;;;;2.30;72.56;98965.69;6155723;23;20399;-72
2021/11/27 06:11:35;;;;;;;;;;;;;;;2.38;72.30;98958.31;6105416;23;19948;-71
2021/11/27 06:14:01;;;;;;;;;;;;;;;2.36;71.74;98957.53;6155998;23;20414;-75
2021/11/27 06:16:27;;;;;;;;;;;;;;;2.47;71.60;98961.31;6159012;23;19921;-74
2021/11/27 06:18:52;;;;;;;;;;;;;;;2.50;71.56;98955.94;6132092;23;19943;-70
2021/11/27 06:21:21;;;;;;;;;;;;;;;2.47;71.38;98950.88;6105102;23;19956;-74
2021/11/27 06:23:50;;;;;;;;;;;;;;;2.52;71.56;98954.09;6128277;23;19951;-70
2021/11/27 06:26:16;;;;;;;;;;;;;;;2.42;71.49;98951.16;6155799;23;19983;-72
2021/11/27 06:28:41;;;;;;;;;;;;;;;2.34;71.27;98946.34;6154443;23;19920;-71
2021/11/27 06:31:07;;;;;;;;;;;;;;;2.28;71.90;98946.69;6154157;23;19920;-69
2021/11/27 06:33:33;;;;;;;;;;;;;;;2.27;71.51;98950.22;6128741;23;19920;-73
2021/11/27 06:35:58;;;;;;;;;;;;;;;2.31;71.22;98950.91;6129807;23;20002;-72
2021/11/27 06:38:24;;;;;;;;;;;;;;;2.29;71.04;98948.34;6155323;23;19947;-72
2021/11/27 06:40:50;;;;;;;;;;;;;;;2.31;71.19;98938.69;6154472;23;19925;-69
2021/11/27 06:43:24;;;;;;;;;;;;;;;2.36;70.99;98944.50;6130967;23;19931;-71
2021/11/27 06:46:10;;;;;;;;;;;;;;;2.40;70.72;98929.50;6121938;23;19921;-71
2021/11/27 06:48:36;;;;;;;;;;;;;;;2.27;70.77;98931.97;6154187;23;19921;-71
2021/11/27 06:51:02;;;;;;;;;;;;;;;2.26;70.60;98925.88;6104076;23;19920;-71
2021/11/27 06:53:28;;;;;;;;;;;;;;;2.28;70.81;98920.59;6155294;23;20350;-69
2021/11/27 06:55:55;;;;;;;;;;;;;;;2.14;70.31;98933.56;6152815;23;19931;-71
2021/11/27 06:58:21;;;;;;;;;;;;;;;2.12;70.79;98919.75;6128346;23;19921;-69
2021/11/27 07:01:19;;;;;;;;;;;;;;;2.07;70.57;98933.88;6034938;23;19928;-70
2021/11/27 07:04:03;;;;;;;;;;;;;;;2.03;70.65;98934.97;6033586;23;19988;-71
2021/11/27 07:06:47;;;;;;;;;;;;;;;2.05;70.46;98946.16;6034854;23;19987;-70
2021/11/27 07:09:16;;;;;;;;;;;;;;;2.13;69.92;98931.88;6011492;23;19922;-69
2021/11/27 07:12:00;;;;;;;;;;;;;;;2.02;70.02;98935.91;6036466;23;20353;-69
2021/11/27 07:14:26;;;;;;;;;;;;;;;1.96;69.50;98941.44;6034880;23;19922;-72
2021/11/27 07:16:51;;;;;;;;;;;;;;;1.96;69.71;98932.75;6034672;23;19922;-69
2021/11/27 07:19:17;;;;;;;;;;;;;;;1.89;69.68;98950.50;6034045;23;19929;-71
2021/11/27 07:21:43;;;;;;;;;;;;;;;1.81;70.08;98929.22;6034151;23;19929;-71
2021/11/27 07:24:08;;;;;;;;;;;;;;;1.76;69.77;98932.91;6033785;23;19961;-70
2021/11/27 07:26:34;;;;;;;;;;;;;;;1.80;69.99;98925.78;6035786;23;20009;-71
2021/11/27 07:29:09;;;;;;;;;;;;;;;1.75;70.26;98915.59;6036591;23;19921;-70
2021/11/27 07:31:40;;;;;;;;;;;;;;;1.82;69.71;98928.28;6035834;23;20351;-70
2021/11/27 07:34:06;;;;;;;;;;;;;;;1.72;70.24;98918.38;5989158;23;19970;-71
2021/11/27 07:36:31;;;;;;;;;;;;;;;1.76;69.89;98903.41;6077248;23;19944;-74
2021/11/27 07:38:57;;;;;;;;;;;;;;;1.88;69.52;98896.69;6155887;23;19955;-71
2021/11/27 07:41:23;;;;;;;;;;;;;;;1.88;69.57;98891.47;6156277;23;19924;-73
2021/11/27 07:43:48;;;;;;;;;;;;;;;1.89;69.47;98900.97;6155696;23;20337;-75
2021/11/27 07:46:40;;;;;;;;;;;;;;;1.98;69.42;98887.47;6154608;23;19939;-70
2021/11/27 07:49:25;;;;;;;;;;;;;;;1.76;69.12;98878.16;6155187;23;19921;-75
2021/11/27 07:52:09;;;;;;;;;;;;;;;1.80;69.69;98878.03;6155212;23;20028;-69
2021/11/27 07:54:35;;;;;;;;;;;;;;;1.71;69.69;98863.72;6155436;23;20339;-74
2021/11/27 07:57:01;;;;;;;;;;;;;;;1.85;69.64;98857.75;6128693;23;20237;-72
2021/11/27 07:59:29;;;;;;;;;;;;;;;1.94;69.32;98854.63;6130056;23;19972;-75
2021/11/27 08:01:55;;;;;;;;;;;;;;;1.91;69.13;98844.38;6131950;23;19924;-73
2021/11/27 08:04:21;;;;;;;;;;;;;;;1.94;68.88;98849.41;6107589;23;20303;-75
2021/11/27 08:06:47;;;;;;;;;;;;;;;1.98;68.98;98840.50;6109472;23;19999;-75
2021/11/27 08:09:13;;;;;;;;;;;;;;;2.00;68.53;98827.38;6134283;23;19921;-74
2021/11/27 08:11:38;;;;;;;;;;;;;;;2.03;69.03;98822.84;6132385;23;19971;-75
2021/11/27 08:14:04;;;;;;;;;;;;;;;2.04;68.68;98818.44;6132975;23;19921;-73
2021/11/27 08:16:30;;;;;;;;;;;;;;;1.99;68.82;98810.88;6135715;23;19921;-74
2021/11/27 08:18:56;;;;;;;;;;;;;;;1.96;68.62;98811.06;6108720;23;20403;-74
2021/11/27 08:21:21;;;;;;;;;;;;;;;1.98;69.07;98797.94;6106170;23;20300;-72
2021/11/27 08:23:47;;;;;;;;;;;;;;;1.97;69.00;98819.72;6158712;23;19916;-73
2021/11/27 08:26:13;;;;;;;;;;;;;;;1.96;69.01;98824.09;6158509;23;19916;-74
2021/11/27 08:28:39;;;;;;;;;;;;;;;1.86;69.08;98809.91;6159457;23;19984;-72
2021/11/27 08:31:04;;;;;;;;;;;;;;;1.94;68.99;98807.69;6111725;23;19924;-74
2021/11/27 08:33:30;;;;;;;;;;;;;;;1.93;69.03;98816.44;6136715;23;19921;-71
2021/11/27 08:35:56;;;;;;;;;;;;;;;1.91;69.07;98811.31;6162948;23;19929;-72
2021/11/27 08:38:21;;;;;;;;;;;;;;;1.97;69.37;98796.25;6159885;23;19948;-76
2021/11/27 08:40:48;;;;;;;;;;;;;;;1.98;68.96;98797.94;6160704;23;19920;-73
2021/11/27 08:43:14;;;;;;;;;;;;;;;1.85;69.24;98808.22;6160966;23;20260;-69
2021/11/27 08:45:41;;;;;;;;;;;;;;;1.80;69.51;98778.97;6134076;23;19920;-73
2021/11/27 08:48:07;;;;;;;;;;;;;;;1.83;69.41;98789.19;6109381;23;19975;-71
2021/11/27 08:50:33;;;;;;;;;;;;;;;1.90;69.58;98787.94;6135589;23;19928;-71
2021/11/27 08:52:59;;;;;;;;;;;;;;;1.91;69.51;98803.50;6107886;23;19990;-75
2021/11/27 08:55:25;;;;;;;;;;;;;;;1.89;69.39;98781.03;6160069;23;20412;-75
2021/11/27 08:57:53;;;;;;;;;;;;;;;1.88;69.10;98776.75;6109870;23;19928;-76
2021/11/27 09:00:19;;;;;;;;;;;;;;;1.87;69.64;98781.13;6135272;23;19921;-70
2021/11/27 09:02:45;;;;;;;;;;;;;;;1.73;69.51;98784.50;6109576;23;20367;-71
2021/11/27 09:05:10;;;;;;;;;;;;;;;1.67;69.98;98769.22;6132548;23;19920;-75
2021/11/27 09:07:36;;;;;;;;;;;;;;;1.74;69.90;98770.53;6134532;23;19921;-72
2021/11/27 09:10:02;;;;;;;;;;;;;;;1.75;70.10;98777.44;6158509;23;19967;-69
2021/11/27 09:12:28;;;;;;;;;;;;;;;1.64;70.55;98758.94;6157569;23;19924;-73
2021/11/27 09:14:55;;;;;;;;;;;;;;;1.53;71.06;98771.72;6158563;23;20321;-72
2021/11/27 09:17:21;;;;;;;;;;;;;;;1.52;70.96;98757.00;6132762;23;19967;-72
2021/11/27 09:19:46;;;;;;;;;;;;;;;1.47;70.70;98736.44;6133282;23;19920;-71
2021/11/27 09:22:12;;;;;;;;;;;;;;;1.52;71.37;98736.16;6132581;23;19921;-73
2021/11/27 09:24:38;;;;;;;;;;;;;;;1.56;71.22;98750.72;6106130;23;19927;-71
2021/11/27 09:27:04;;;;;;;;;;;;;;;1.43;71.52;98733.16;6130795;23;20038;-72
2021/11/27 09:29:29;;;;;;;;;;;;;;;1.51;71.76;98731.88;6107415;23;19924;-70
2021/11/27 09:31:55;;;;;;;;;;;;;;;1.51;71.44;98737.06;6158294;23;19924;-71
2021/11/27 09:34:21;;;;;;;;;;;;;;;1.61;71.63;98717.41;6134784;23;19963;-68
2021/11/27 09:36:48;;;;;;;;;;;;;;;1.63;71.12;98723.38;6131753;23;20332;-73
2021/11/27 09:39:14;;;;;;;;;;;;;;;1.55;71.64;98713.38;6132052;23;19921;-73
2021/11/27 09:41:42;;;;;;;;;;;;;;;1.55;71.76;98725.56;6131127;23;20059;-71
2021/11/27 09:44:08;;;;;;;;;;;;;;;1.56;71.45;98729.88;6158975;23;19936;-72
2021/11/27 09:46:35;;;;;;;;;;;;;;;1.37;71.50;98710.03;6107398;23;19921;-74
2021/11/27 09:49:05;;;;;;;;;;;;;;;1.42;71.79;98691.53;6130545;23;19952;-72
2021/11/27 09:51:31;;;;;;;;;;;;;;;1.42;72.36;98699.34;6130831;23;19927;-71
2021/11/27 09:53:57;;;;;;;;;;;;;;;1.35;72.15;98695.41;6156443;23;19921;-71
2021/11/27 09:56:24;;;;;;;;;;;;;;;1.27;72.20;98665.41;6155684;23;19921;-71
2021/11/27 09:58:50;;;;;;;;;;;;;;;1.32;72.41;98672.13;6130803;23;19920;-72
2021/11/27 10:01:22;;;;;;;;;;;;;;;1.29;72.77;98678.34;6130193;23;19948;-73
2021/11/27 10:03:50;;;;;;;;;;;;;;;1.28;72.65;98668.84;6131720;23;19924;-72
2021/11/27 10:06:16;;;;;;;;;;;;;;;1.28;73.08;98663.63;6129636;23;20313;-72
2021/11/27 10:08:42;;;;;;;;;;;;;;;1.39;72.57;98660.44;6130684;23;19925;-71
2021/11/27 10:11:07;;;;;;;;;;;;;;;1.41;72.51;98654.22;6157093;23;20374;-70
2021/11/27 10:13:33;;;;;;;;;;;;;;;1.33;72.52;98653.81;6130073;23;19948;-75
2021/11/27 10:15:58;;;;;;;;;;;;;;;1.32;72.91;98654.75;6161714;23;19927;-71
2021/11/27 10:18:25;;;;;;;;;;;;;;;1.32;73.16;98638.25;6130011;23;19921;-75
2021/11/27 10:21:09;;;;;;;;;;;;;;;1.32;73.16;98638.25;6155737;23;20012;-71
2021/11/27 10:23:37;;;;;;;;;;;;;;;1.33;73.15;98646.00;6130365;23;19924;-72
2021/11/27 10:26:03;;;;;;;;;;;;;;;1.27;72.75;98667.16;6156518;23;19928;-70
2021/11/27 10:28:29;;;;;;;;;;;;;;;1.10;73.72;98648.09;6155835;23;20332;-71
2021/11/27 10:30:59;;;;;;;;;;;;;;;1.18;73.06;98662.47;6105641;23;19935;-72
2021/11/27 10:33:26;;;;;;;;;;;;;;;1.13;73.25;98647.97;6155320;23;20003;-74
2021/11/27 10:35:52;;;;;;;;;;;;;;;1.09;73.20;98641.22;6129827;23;19927;-73
2021/11/27 10:38:17;;;;;;;;;;;;;;;1.12;73.31;98619.38;6128966;23;19944;-72
2021/11/27 10:40:43;;;;;;;;;;;;;;;1.12;73.65;98633.25;6129039;23;19961;-69
2021/11/27 10:43:10;;;;;;;;;;;;;;;1.09;73.43;98636.00;6128123;23;19944;-72
2021/11/27 10:48:39;;;;;;;;;;;;;;;1.06;73.92;98617.97;6152391;23;20295;-70
2021/11/27 10:51:04;;;;;;;;;;;;;;;1.08;73.66;98605.69;6128870;23;19921;-75
2021/11/27 10:53:33;;;;;;;;;;;;;;;1.10;74.22;98598.63;6128537;23;19921;-72
2021/11/27 10:56:05;;;;;;;;;;;;;;;1.06;73.75;98602.34;6154862;23;19939;-69
2021/11/27 10:58:31;;;;;;;;;;;;;;;1.08;74.31;98584.84;6129150;23;19927;-70
2021/11/27 11:00:57;;;;;;;;;;;;;;;1.06;73.75;98584.13;6155596;23;19920;-70
2021/11/27 11:03:33;;;;;;;;;;;;;;;1.02;74.18;98595.59;6130004;23;19959;-69
2021/11/27 11:06:00;;;;;;;;;;;;;;;1.02;73.74;98581.75;6154466;23;20003;-70
2021/11/27 11:08:30;;;;;;;;;;;;;;;1.02;73.92;98584.38;6154363;23;20336;-70
2021/11/27 11:10:55;;;;;;;;;;;;;;;0.94;73.99;98584.78;6104384;23;19929;-71
2021/11/27 11:13:22;;;;;;;;;;;;;;;0.98;74.19;98578.47;6128382;23;19925;-70
2021/11/27 11:15:47;;;;;;;;;;;;;;;0.86;74.59;98563.53;6128506;23;19996;-75
2021/11/27 11:18:21;;;;;;;;;;;;;;;0.90;74.67;98565.06;6129271;23;20368;-71
2021/11/27 11:20:48;;;;;;;;;;;;;;;0.84;74.53;98571.44;6128651;23;20392;-72
2021/11/27 11:23:23;;;;;;;;;;;;;;;0.88;75.07;98578.16;6157471;23;20390;-71
2021/11/27 11:25:55;;;;;;;;;;;;;;;0.85;74.72;98561.84;6129065;23;19943;-70
2021/11/27 11:28:21;;;;;;;;;;;;;;;0.78;75.15;98556.16;6155389;23;19948;-72
2021/11/27 11:30:48;;;;;;;;;;;;;;;0.85;75.22;98549.69;6129688;23;19921;-73
2021/11/27 11:33:14;;;;;;;;;;;;;;;0.85;75.54;98580.06;6128785;23;19927;-72
2021/11/27 11:35:40;;;;;;;;;;;;;;;0.83;75.12;98559.34;6127762;23;19921;-69
2021/11/27 11:38:11;;;;;;;;;;;;;;;0.79;74.97;98540.47;6154160;23;19921;-71
2021/11/27 11:40:37;;;;;;;;;;;;;;;0.86;74.90;98543.59;6129700;23;19921;-69
2021/11/27 11:43:02;;;;;;;;;;;;;;;0.81;75.50;98540.41;6154014;23;20020;-69
2021/11/27 11:45:28;;;;;;;;;;;;;;;0.81;75.10;98540.41;6155139;23;19963;-72
2021/11/27 11:47:54;;;;;;;;;;;;;;;0.85;75.12;98528.03;6155008;23;19920;-71
2021/11/27 11:50:23;;;;;;;;;;;;;;;0.84;75.07;98523.78;6129333;23;20240;-70
2021/11/27 11:52:55;;;;;;;;;;;;;;;0.80;75.80;98530.91;6129234;23;20245;-70
2021/11/27 11:55:21;;;;;;;;;;;;;;;0.86;75.05;98524.50;6151821;23;19928;-71
2021/11/27 11:57:53;;;;;;;;;;;;;;;0.93;74.98;98520.63;6155932;23;19920;-74
2021/11/27 12:00:19;;;;;;;;;;;;;;;0.86;75.39;98521.91;6156969;23;19920;-75
2021/11/27 12:02:45;;;;;;;;;;;;;;;0.87;75.17;98507.97;6158361;23;20008;-70
2021/11/27 12:05:15;;;;;;;;;;;;;;;0.83;75.55;98504.69;6131386;23;19944;-73
2021/11/27 12:08:04;;;;;;;;;;;;;;;0.94;75.20;98514.50;6158150;23;19925;-69
2021/11/27 12:10:52;;;;;;;;;;;;;;;0.93;75.01;98499.81;6131128;23;19921;-76
2021/11/27 12:13:29;;;;;;;;;;;;;;;0.86;75.04;98506.28;6156790;23;19963;-72
2021/11/27 12:16:02;;;;;;;;;;;;;;;0.89;75.42;98526.94;6158844;23;19974;-73
2021/11/27 12:18:28;;;;;;;;;;;;;;;0.83;75.77;98501.25;6131904;23;19920;-71
2021/11/27 12:20:53;;;;;;;;;;;;;;;0.76;76.22;98514.63;6159316;23;20244;-73
2021/11/27 12:23:25;;;;;;;;;;;;;;;0.70;76.24;98495.88;6158605;23;19959;-74
2021/11/27 12:26:14;;;;;;;;;;;;;;;0.73;76.69;98511.34;6133383;23;19921;-72
2021/11/27 12:28:43;;;;;;;;;;;;;;;0.74;77.00;98498.25;6161036;23;19979;-71
2021/11/27 12:31:09;;;;;;;;;;;;;;;0.71;77.61;98487.16;6160244;23;19960;-72
2021/11/27 12:33:41;;;;;;;;;;;;;;;0.70;78.03;98496.75;6129615;23;19974;-74
2021/11/27 12:36:07;;;;;;;;;;;;;;;0.73;77.72;98480.94;6133029;23;19920;-71
2021/11/27 12:38:33;;;;;;;;;;;;;;;0.74;77.97;98482.63;6139252;23;19920;-74
2021/11/27 12:40:59;;;;;;;;;;;;;;;0.78;77.54;98478.09;6133363;23;20025;-73
2021/11/27 12:43:25;;;;;;;;;;;;;;;0.77;77.50;98461.66;6106327;23;19920;-71
2021/11/27 12:45:52;;;;;;;;;;;;;;;0.85;77.55;98452.53;6130319;23;19942;-71
2021/11/27 12:48:30;;;;;;;;;;;;;;;0.83;77.66;98459.63;6157119;23;20375;-70
2021/11/27 12:51:14;;;;;;;;;;;;;;;0.86;76.86;98454.22;6129597;23;19924;-70
2021/11/27 12:53:39;;;;;;;;;;;;;;;0.79;77.78;98451.16;6155564;23;19921;-73
2021/11/27 12:56:05;;;;;;;;;;;;;;;0.90;77.43;98445.34;6124052;23;19948;-70
2021/11/27 12:58:32;;;;;;;;;;;;;;;0.82;77.97;98450.97;6124173;23;19920;-70
2021/11/27 13:00:57;;;;;;;;;;;;;;;0.83;77.71;98436.19;6099493;23;20634;-73
2021/11/27 13:03:23;;;;;;;;;;;;;;;0.88;78.11;98431.56;6123135;23;19956;-72